createdAt,value
2022-10-25T00:01:37.903Z,12.00
2022-10-25T00:04:04.853Z,11.90
2022-10-25T00:06:31.530Z,11.80
2022-10-25T00:08:58.223Z,11.80
2022-10-25T00:11:27.731Z,11.80
2022-10-25T00:13:56.661Z,11.60
2022-10-25T00:16:34.475Z,11.60
2022-10-25T00:19:01.198Z,11.50
2022-10-25T00:21:27.964Z,11.40
2022-10-25T00:23:54.670Z,11.30
2022-10-25T00:26:21.419Z,11.20
2022-10-25T00:28:48.515Z,11.20
2022-10-25T00:31:16.800Z,11.20
2022-10-25T00:33:44.555Z,11.10
2022-10-25T00:36:20.560Z,11.10
2022-10-25T00:38:47.638Z,11.10
2022-10-25T00:41:17.325Z,11.10
2022-10-25T00:43:50.048Z,11.20
2022-10-25T00:46:28.425Z,11.10
2022-10-25T00:49:04.319Z,11.00
2022-10-25T00:51:54.785Z,11.10
2022-10-25T00:54:26.442Z,11.10
2022-10-25T00:56:53.829Z,11.10
2022-10-25T00:59:25.999Z,11.10
2022-10-25T01:01:54.781Z,11.10
2022-10-25T01:04:26.171Z,11.10
2022-10-25T01:06:53.702Z,11.10
2022-10-25T01:09:25.031Z,11.20
2022-10-25T01:11:51.871Z,11.20
2022-10-25T01:14:20.258Z,11.20
2022-10-25T01:16:57.854Z,11.30
2022-10-25T01:20:05.001Z,11.30
2022-10-25T01:22:59.565Z,11.40
2022-10-25T01:25:41.022Z,11.40
2022-10-25T01:28:19.003Z,11.40
2022-10-25T01:30:57.620Z,11.30
2022-10-25T01:33:34.319Z,11.40
2022-10-25T01:36:14.970Z,11.40
2022-10-25T01:38:50.319Z,11.40
2022-10-25T01:41:28.054Z,11.50
2022-10-25T01:44:16.452Z,11.50
2022-10-25T01:47:18.446Z,11.40
2022-10-25T01:49:51.044Z,11.40
2022-10-25T01:52:22.712Z,11.30
2022-10-25T01:54:50.328Z,11.30
2022-10-25T01:57:46.508Z,11.40
2022-10-25T02:00:14.756Z,11.50
2022-10-25T02:03:04.292Z,11.50
2022-10-25T02:05:58.882Z,11.60
2022-10-25T02:08:41.360Z,11.60
2022-10-25T02:11:30.074Z,11.60
2022-10-25T02:14:11.701Z,11.60
2022-10-25T02:16:44.111Z,11.50
2022-10-25T02:19:15.255Z,11.50
2022-10-25T02:21:43.941Z,11.50
2022-10-25T02:24:21.130Z,11.50
2022-10-25T02:29:23.723Z,11.40
2022-10-25T02:31:50.862Z,11.40
2022-10-25T02:34:19.149Z,11.40
2022-10-25T02:36:50.802Z,11.40
2022-10-25T02:39:18.554Z,11.50
2022-10-25T02:41:45.296Z,11.60
2022-10-25T02:44:11.930Z,11.60
2022-10-25T02:46:38.692Z,11.60
2022-10-25T02:49:05.409Z,11.70
2022-10-25T02:51:32.564Z,11.70
2022-10-25T02:53:59.432Z,11.80
2022-10-25T02:56:26.354Z,11.80
2022-10-25T02:58:56.472Z,11.80
2022-10-25T03:01:24.315Z,11.80
2022-10-25T03:03:51.566Z,11.70
2022-10-25T03:06:18.586Z,11.70
2022-10-25T03:08:46.177Z,11.90
2022-10-25T03:11:16.362Z,11.90
2022-10-25T03:13:43.241Z,11.80
2022-10-25T03:16:10.054Z,11.80
2022-10-25T03:18:37.045Z,11.70
2022-10-25T03:21:05.140Z,11.80
2022-10-25T03:23:32.022Z,11.80
2022-10-25T03:26:00.182Z,11.90
2022-10-25T03:28:27.889Z,11.90
2022-10-25T03:30:55.763Z,11.80
2022-10-25T03:33:23.130Z,11.80
2022-10-25T03:35:53.947Z,11.90
2022-10-25T03:38:21.204Z,11.90
2022-10-25T03:40:48.149Z,12.00
2022-10-25T03:43:14.980Z,12.10
2022-10-25T03:45:41.721Z,12.10
2022-10-25T03:48:08.506Z,12.10
2022-10-25T03:50:36.200Z,12.20
2022-10-25T03:53:04.058Z,12.20
2022-10-25T03:55:31.443Z,12.30
2022-10-25T03:57:58.182Z,12.30
2022-10-25T04:00:25.041Z,12.30
2022-10-25T04:03:02.095Z,12.30
2022-10-25T04:05:30.538Z,12.40
2022-10-25T04:07:57.343Z,12.50
2022-10-25T04:10:25.288Z,12.40
2022-10-25T04:12:53.530Z,12.50
2022-10-25T04:15:21.903Z,12.60
2022-10-25T04:17:50.250Z,12.60
2022-10-25T04:20:17.175Z,12.60
2022-10-25T04:22:44.015Z,12.60
2022-10-25T04:25:10.743Z,12.60
2022-10-25T04:27:37.413Z,12.70
2022-10-25T04:30:04.430Z,12.70
2022-10-25T04:32:31.120Z,12.80
2022-10-25T04:34:57.807Z,12.80
2022-10-25T04:37:24.493Z,12.80
2022-10-25T04:39:51.196Z,12.90
2022-10-25T04:42:19.280Z,12.90
2022-10-25T04:44:46.000Z,13.00
2022-10-25T04:47:13.063Z,13.00
2022-10-25T04:49:39.724Z,13.00
2022-10-25T04:52:06.421Z,13.00
2022-10-25T04:54:33.071Z,13.00
2022-10-25T04:57:00.444Z,13.10
2022-10-25T04:59:27.152Z,13.10
2022-10-25T05:01:53.863Z,13.10
2022-10-25T05:04:20.632Z,13.10
2022-10-25T05:06:47.318Z,13.10
2022-10-25T05:09:14.020Z,13.10
2022-10-25T05:11:41.004Z,13.10
2022-10-25T05:14:07.691Z,13.10
2022-10-25T05:16:35.252Z,13.20
2022-10-25T05:19:02.021Z,13.10
2022-10-25T05:21:31.013Z,13.10
2022-10-25T05:24:02.063Z,13.10
2022-10-25T05:26:30.212Z,13.10
2022-10-25T05:28:57.450Z,13.10
2022-10-25T05:31:27.091Z,13.10
2022-10-25T05:33:56.771Z,13.10
2022-10-25T05:36:24.219Z,13.10
2022-10-25T05:38:50.960Z,13.10
2022-10-25T05:41:18.688Z,13.40
2022-10-25T05:43:45.955Z,13.30
2022-10-25T05:46:18.353Z,13.30
2022-10-25T05:48:48.785Z,13.30
2022-10-25T05:51:32.936Z,13.20
2022-10-25T05:54:05.946Z,13.30
2022-10-25T05:56:33.516Z,13.30
2022-10-25T05:59:09.365Z,13.30
2022-10-25T06:01:38.298Z,13.30
2022-10-25T06:04:05.891Z,13.30
2022-10-25T06:06:32.691Z,13.30
2022-10-25T06:09:01.000Z,13.30
2022-10-25T06:11:29.032Z,13.30
2022-10-25T06:13:55.999Z,13.30
2022-10-25T06:16:22.785Z,13.40
2022-10-25T06:18:49.552Z,13.40
2022-10-25T06:21:19.201Z,13.40
2022-10-25T06:23:46.654Z,13.40
2022-10-25T06:26:18.858Z,13.40
2022-10-25T06:28:45.664Z,13.40
2022-10-25T06:31:17.871Z,13.50
2022-10-25T06:33:44.841Z,13.50
2022-10-25T06:36:19.639Z,13.40
2022-10-25T06:38:47.840Z,13.50
2022-10-25T06:41:23.305Z,13.50
2022-10-25T06:43:50.669Z,13.70
2022-10-25T06:46:22.673Z,13.50
2022-10-25T06:48:50.401Z,13.50
2022-10-25T06:51:17.335Z,13.50
2022-10-25T06:53:44.478Z,13.60
2022-10-25T06:56:14.705Z,13.60
2022-10-25T06:58:42.247Z,13.70
2022-10-25T07:01:12.395Z,13.70
2022-10-25T07:03:39.333Z,13.70
2022-10-25T07:06:11.784Z,13.70
2022-10-25T07:08:40.470Z,13.80
2022-10-25T07:11:08.882Z,13.90
2022-10-25T07:13:35.627Z,13.90
2022-10-25T07:16:06.605Z,13.90
2022-10-25T07:18:33.995Z,14.00
2022-10-25T07:21:02.371Z,13.90
2022-10-25T07:23:29.607Z,14.00
2022-10-25T07:25:57.318Z,14.00
2022-10-25T07:28:24.352Z,14.00
2022-10-25T07:30:51.393Z,14.10
2022-10-25T07:33:20.016Z,14.10
2022-10-25T07:35:59.044Z,14.00
2022-10-25T07:38:33.290Z,14.10
2022-10-25T07:41:00.141Z,14.20
2022-10-25T07:43:28.093Z,14.30
2022-10-25T07:45:55.269Z,14.30
2022-10-25T07:48:23.054Z,14.30
2022-10-25T07:50:50.033Z,14.40
2022-10-25T07:53:16.708Z,14.40
2022-10-25T07:55:43.411Z,14.40
2022-10-25T07:58:11.337Z,14.40
2022-10-25T08:00:38.125Z,14.40
2022-10-25T08:03:04.959Z,14.40
2022-10-25T08:05:31.717Z,14.40
2022-10-25T08:07:58.363Z,14.40
2022-10-25T08:10:25.484Z,14.30
2022-10-25T08:12:54.748Z,14.30
2022-10-25T08:15:21.444Z,14.30
2022-10-25T08:17:48.562Z,14.40
2022-10-25T08:20:15.570Z,14.30
2022-10-25T08:22:42.278Z,14.40
2022-10-25T08:25:09.460Z,14.50
2022-10-25T08:27:36.166Z,14.80
2022-10-25T08:30:02.941Z,15.00
2022-10-25T08:32:31.219Z,15.30
2022-10-25T08:34:57.973Z,15.60
2022-10-25T08:37:24.690Z,15.70
2022-10-25T08:39:53.555Z,15.80
2022-10-25T08:42:39.407Z,15.60
2022-10-25T08:45:36.209Z,15.80
2022-10-25T08:48:06.186Z,15.70
2022-10-25T08:50:45.396Z,15.50
2022-10-25T08:53:23.194Z,15.70
2022-10-25T08:56:11.460Z,15.70
2022-10-25T08:58:51.553Z,15.80
2022-10-25T09:01:40.683Z,15.80
2022-10-25T09:04:07.482Z,15.70
2022-10-25T09:07:00.206Z,15.70
2022-10-25T09:10:16.685Z,15.80
2022-10-25T09:13:11.059Z,16.00
2022-10-25T09:15:59.255Z,16.00
2022-10-25T09:18:54.965Z,16.00
2022-10-25T09:21:30.325Z,16.20
2022-10-25T09:23:59.031Z,16.30
2022-10-25T09:26:42.624Z,16.40
2022-10-25T09:29:24.420Z,16.40
2022-10-25T09:32:02.106Z,16.00
2022-10-25T09:34:35.234Z,16.10
2022-10-25T09:37:13.932Z,16.10
2022-10-25T09:39:45.779Z,16.30
2022-10-25T09:42:38.892Z,16.20
2022-10-25T09:45:15.942Z,16.40
2022-10-25T09:48:13.377Z,16.60
2022-10-25T09:50:47.515Z,16.30
2022-10-25T09:53:18.891Z,16.30
2022-10-25T09:55:52.876Z,16.40
2022-10-25T09:58:22.557Z,16.40
2022-10-25T10:00:51.574Z,16.60
2022-10-25T10:03:19.594Z,16.50
2022-10-25T10:05:56.706Z,16.50
2022-10-25T10:08:27.054Z,16.50
2022-10-25T10:10:54.946Z,16.60
2022-10-25T10:13:45.200Z,16.50
2022-10-25T10:16:17.962Z,16.60
2022-10-25T10:18:44.808Z,16.40
2022-10-25T10:21:11.454Z,16.30
2022-10-25T10:23:44.033Z,16.30
2022-10-25T10:26:21.748Z,16.30
2022-10-25T10:28:50.604Z,16.50
2022-10-25T10:31:18.985Z,16.70
2022-10-25T10:33:52.370Z,16.80
2022-10-25T10:36:28.036Z,17.00
2022-10-25T10:39:12.360Z,17.10
2022-10-25T10:42:00.828Z,16.90
2022-10-25T10:44:27.572Z,17.00
2022-10-25T10:46:57.277Z,17.10
2022-10-25T10:49:34.768Z,17.10
2022-10-25T10:52:02.952Z,17.10
2022-10-25T10:54:34.995Z,17.00
2022-10-25T10:57:04.511Z,17.10
2022-10-25T10:59:55.111Z,17.20
2022-10-25T11:02:26.770Z,17.10
2022-10-25T11:04:56.036Z,17.10
2022-10-25T11:07:34.678Z,17.30
2022-10-25T11:10:16.782Z,17.30
2022-10-25T11:12:44.251Z,17.30
2022-10-25T11:15:12.653Z,17.10
2022-10-25T11:17:50.825Z,17.30
2022-10-25T11:20:48.347Z,17.90
2022-10-25T11:23:27.000Z,18.00
2022-10-25T11:26:05.926Z,17.50
2022-10-25T11:28:46.798Z,17.80
2022-10-25T11:31:50.991Z,17.50
2022-10-25T11:34:27.663Z,16.90
2022-10-25T11:36:54.299Z,16.90
2022-10-25T11:39:35.918Z,16.90
2022-10-25T11:42:18.287Z,16.90
2022-10-25T11:45:04.490Z,16.90
2022-10-25T11:47:51.534Z,16.80
2022-10-25T11:50:44.390Z,16.80
2022-10-25T11:53:33.860Z,17.00
2022-10-25T11:56:09.338Z,17.20
2022-10-25T11:58:52.346Z,17.60
2022-10-25T12:01:45.110Z,17.70
2022-10-25T12:04:34.762Z,17.50
2022-10-25T12:07:13.574Z,17.80
2022-10-25T12:10:07.054Z,17.80
2022-10-25T12:12:45.695Z,17.80
2022-10-25T12:15:35.534Z,17.80
2022-10-25T12:18:04.534Z,17.70
2022-10-25T12:20:32.183Z,17.70
2022-10-25T12:23:02.000Z,17.60
2022-10-25T12:25:37.173Z,17.60
2022-10-25T12:28:42.518Z,17.60
2022-10-25T12:31:31.542Z,17.80
2022-10-25T12:34:06.270Z,17.90
2022-10-25T12:36:45.400Z,17.70
2022-10-25T12:39:30.266Z,17.60
2022-10-25T12:42:04.683Z,17.50
2022-10-25T12:44:43.202Z,17.60
2022-10-25T12:47:36.767Z,17.60
2022-10-25T12:50:40.455Z,17.50
2022-10-25T12:53:34.904Z,17.50
2022-10-25T12:56:40.107Z,17.80
2022-10-25T12:59:24.558Z,18.00
2022-10-25T13:02:12.804Z,18.20
2022-10-25T13:05:06.799Z,18.10
2022-10-25T13:07:36.022Z,17.70
2022-10-25T13:10:23.959Z,17.70
2022-10-25T13:13:18.746Z,17.60
2022-10-25T13:15:51.404Z,17.60
2022-10-25T13:18:39.990Z,17.70
2022-10-25T13:21:31.020Z,17.80
2022-10-25T13:24:02.752Z,17.40
2022-10-25T13:26:32.084Z,17.20
2022-10-25T13:29:23.013Z,17.30
2022-10-25T13:32:05.664Z,17.30
2022-10-25T13:34:36.679Z,17.40
2022-10-25T13:37:05.458Z,17.30
2022-10-25T13:39:38.299Z,17.30
2022-10-25T13:42:15.610Z,17.20
2022-10-25T13:45:02.542Z,17.10
2022-10-25T13:47:35.852Z,17.10
2022-10-25T13:53:03.205Z,17.30
2022-10-25T13:55:36.485Z,17.30
2022-10-25T13:58:31.680Z,17.30
2022-10-25T14:01:19.054Z,17.20
2022-10-25T14:03:50.655Z,17.30
2022-10-25T14:06:28.570Z,17.40
2022-10-25T14:09:36.361Z,17.60
2022-10-25T14:12:03.465Z,17.70
2022-10-25T14:14:58.472Z,17.70
2022-10-25T14:17:36.667Z,17.70
2022-10-25T14:20:32.395Z,17.40
2022-10-25T14:23:03.669Z,17.40
2022-10-25T14:26:01.756Z,17.30
2022-10-25T14:28:31.414Z,17.30
2022-10-25T14:30:59.133Z,17.20
2022-10-25T14:33:32.260Z,17.20
2022-10-25T14:36:05.109Z,17.10
2022-10-25T14:38:35.018Z,17.00
2022-10-25T14:41:04.205Z,16.90
2022-10-25T14:43:36.704Z,16.80
2022-10-25T14:46:06.143Z,16.90
2022-10-25T14:48:33.865Z,16.90
2022-10-25T14:51:08.734Z,16.90
2022-10-25T14:53:38.011Z,16.80
2022-10-25T14:56:05.857Z,16.80
2022-10-25T14:58:41.307Z,16.70
2022-10-25T15:01:11.331Z,16.70
2022-10-25T15:03:45.686Z,16.60
2022-10-25T15:06:14.463Z,16.60
2022-10-25T15:08:42.461Z,16.50
2022-10-25T15:11:15.379Z,16.40
2022-10-25T15:13:53.375Z,16.40
2022-10-25T15:16:31.408Z,16.30
2022-10-25T15:19:11.723Z,16.40
2022-10-25T15:21:52.859Z,16.20
2022-10-25T15:24:24.010Z,16.10
2022-10-25T15:26:53.776Z,16.20
2022-10-25T15:29:41.557Z,16.10
2022-10-25T15:32:20.627Z,16.00
2022-10-25T15:34:53.235Z,15.90
2022-10-25T15:37:23.120Z,15.80
2022-10-25T15:39:52.261Z,15.70
2022-10-25T15:42:19.873Z,15.60
2022-10-25T15:44:46.602Z,15.40
2022-10-25T15:47:33.063Z,15.40
2022-10-25T15:50:01.598Z,15.40
2022-10-25T15:52:28.494Z,15.30
2022-10-25T15:54:55.178Z,15.20
2022-10-25T15:57:22.021Z,15.10
2022-10-25T15:59:48.710Z,15.10
2022-10-25T16:02:22.334Z,15.10
2022-10-25T16:04:49.271Z,15.00
2022-10-25T16:07:16.405Z,14.80
2022-10-25T16:09:43.491Z,14.70
2022-10-25T16:12:27.798Z,14.70
2022-10-25T16:14:54.565Z,14.60
2022-10-25T16:17:21.733Z,14.50
2022-10-25T16:19:48.605Z,14.40
2022-10-25T16:22:15.308Z,14.20
2022-10-25T16:24:41.965Z,14.20
2022-10-25T16:27:13.668Z,14.20
2022-10-25T16:29:40.859Z,14.10
2022-10-25T16:32:07.582Z,14.00
2022-10-25T16:34:34.277Z,13.90
2022-10-25T16:37:00.931Z,13.90
2022-10-25T16:39:27.630Z,13.80
2022-10-25T16:41:56.517Z,13.70
2022-10-25T16:44:23.170Z,13.60
2022-10-25T16:46:49.781Z,13.60
2022-10-25T16:49:16.543Z,13.50
2022-10-25T16:51:44.180Z,13.50
2022-10-25T16:54:11.412Z,13.30
2022-10-25T16:56:38.079Z,13.30
2022-10-25T16:59:04.756Z,13.20
2022-10-25T17:01:34.702Z,13.20
2022-10-25T17:04:03.488Z,13.20
2022-10-25T17:06:45.652Z,13.10
2022-10-25T17:09:12.342Z,13.10
2022-10-25T17:11:39.160Z,13.00
2022-10-25T17:14:06.223Z,12.90
2022-10-25T17:16:33.251Z,12.90
2022-10-25T17:19:00.221Z,12.80
2022-10-25T17:21:28.191Z,12.70
2022-10-25T17:23:56.418Z,12.70
2022-10-25T17:26:23.243Z,12.70
2022-10-25T17:28:49.879Z,12.70
2022-10-25T17:31:16.562Z,12.60
2022-10-25T17:33:43.680Z,12.60
2022-10-25T17:36:13.925Z,12.60
2022-10-25T17:38:41.014Z,12.50
2022-10-25T17:41:08.615Z,12.50
2022-10-25T17:43:36.387Z,12.40
2022-10-25T17:46:05.369Z,12.40
2022-10-25T17:48:32.171Z,12.40
2022-10-25T17:51:02.848Z,12.40
2022-10-25T17:53:29.845Z,12.40
2022-10-25T17:55:56.661Z,12.30
2022-10-25T17:58:23.360Z,12.30
2022-10-25T18:00:50.110Z,12.20
2022-10-25T18:03:16.793Z,12.20
2022-10-25T18:05:43.448Z,12.20
2022-10-25T18:08:10.477Z,12.10
2022-10-25T18:10:37.160Z,12.10
2022-10-25T18:13:03.797Z,12.10
2022-10-25T18:15:33.224Z,12.10
2022-10-25T18:17:59.840Z,12.00
2022-10-25T18:20:26.472Z,12.00
2022-10-25T18:22:53.383Z,12.00
2022-10-25T18:25:20.032Z,11.90
2022-10-25T18:27:47.087Z,11.80
2022-10-25T18:30:14.138Z,11.80
2022-10-25T18:32:40.832Z,11.90
2022-10-25T18:35:07.944Z,11.80
2022-10-25T18:37:34.579Z,11.80
2022-10-25T18:40:01.301Z,11.80
2022-10-25T18:42:27.968Z,11.80
2022-10-25T18:44:55.317Z,11.80
2022-10-25T18:47:21.973Z,11.70
2022-10-25T18:49:48.853Z,11.60
2022-10-25T18:52:15.519Z,11.60
2022-10-25T18:54:42.258Z,11.60
2022-10-25T18:57:08.899Z,11.60
2022-10-25T18:59:35.604Z,11.60
2022-10-25T19:02:02.456Z,11.60
2022-10-25T19:04:29.332Z,11.60
2022-10-25T19:06:56.011Z,11.60
2022-10-25T19:09:22.851Z,11.60
2022-10-25T19:11:49.478Z,11.60
2022-10-25T19:14:16.232Z,11.60
2022-10-25T19:16:43.618Z,11.60
2022-10-25T19:19:11.982Z,11.60
2022-10-25T19:21:38.765Z,11.50
2022-10-25T19:24:05.951Z,11.50
2022-10-25T19:26:32.677Z,11.60
2022-10-25T19:29:01.210Z,11.50
2022-10-25T19:31:28.794Z,11.60
2022-10-25T19:34:00.027Z,11.50
2022-10-25T19:36:26.680Z,11.40
2022-10-25T19:38:53.482Z,11.50
2022-10-25T19:41:25.783Z,11.50
2022-10-25T19:43:52.997Z,11.50
2022-10-25T19:46:19.869Z,11.50
2022-10-25T19:48:46.753Z,11.40
2022-10-25T19:51:16.251Z,11.50
2022-10-25T19:53:43.297Z,11.50
2022-10-25T19:56:15.964Z,11.50
2022-10-25T19:58:42.997Z,11.50
2022-10-25T20:01:35.883Z,11.40
2022-10-25T20:04:03.049Z,11.40
2022-10-25T20:06:31.964Z,11.50
2022-10-25T20:09:00.200Z,11.50
2022-10-25T20:11:28.499Z,11.40
2022-10-25T20:13:57.028Z,11.40
2022-10-25T20:16:24.845Z,11.40
2022-10-25T20:18:52.157Z,11.40
2022-10-25T20:21:21.401Z,11.30
2022-10-25T20:23:52.852Z,11.30
2022-10-25T20:26:23.536Z,11.30
2022-10-25T20:28:53.150Z,11.20
2022-10-25T20:31:19.910Z,11.30
2022-10-25T20:33:46.633Z,11.20
2022-10-25T20:36:13.983Z,11.30
2022-10-25T20:38:40.971Z,11.40
2022-10-25T20:41:21.509Z,11.40
2022-10-25T20:43:50.818Z,11.40
2022-10-25T20:46:18.101Z,11.40
2022-10-25T20:48:45.660Z,11.40
2022-10-25T20:51:15.587Z,11.50
2022-10-25T20:53:44.076Z,11.50
2022-10-25T20:56:11.529Z,11.40
2022-10-25T20:58:38.234Z,11.50
2022-10-25T21:01:05.148Z,11.40
2022-10-25T21:03:33.087Z,11.40
2022-10-25T21:06:03.594Z,11.50
2022-10-25T21:08:31.002Z,11.50
2022-10-25T21:11:02.808Z,11.50
2022-10-25T21:13:31.605Z,11.50
2022-10-25T21:15:58.973Z,11.50
2022-10-25T21:18:29.065Z,11.50
2022-10-25T21:21:00.992Z,11.50
2022-10-25T21:23:27.945Z,11.50
2022-10-25T21:26:02.137Z,11.60
2022-10-25T21:28:32.837Z,11.60
2022-10-25T21:31:08.642Z,11.60
2022-10-25T21:33:35.406Z,11.60
2022-10-25T21:36:07.711Z,11.60
2022-10-25T21:38:34.393Z,11.70
2022-10-25T21:41:14.767Z,11.60
2022-10-25T21:43:44.632Z,11.70
2022-10-25T21:46:11.931Z,11.70
2022-10-25T21:48:38.656Z,11.80
2022-10-25T21:51:05.499Z,11.80
2022-10-25T21:53:32.566Z,11.80
2022-10-25T21:56:10.668Z,11.80
2022-10-25T21:58:41.328Z,11.90
2022-10-25T22:01:11.048Z,11.80
2022-10-25T22:03:38.722Z,11.80
2022-10-25T22:06:07.276Z,11.70
2022-10-25T22:08:34.386Z,11.70
2022-10-25T22:11:03.891Z,11.70
2022-10-25T22:13:30.627Z,11.80
2022-10-25T22:16:02.889Z,11.80
2022-10-25T22:18:29.642Z,11.80
2022-10-25T22:20:59.446Z,11.80
2022-10-25T22:23:27.863Z,11.80
2022-10-25T22:25:54.947Z,11.80
2022-10-25T22:28:21.633Z,11.80
2022-10-25T22:30:48.356Z,11.90
2022-10-25T22:33:15.028Z,12.00
2022-10-25T22:35:41.736Z,11.90
2022-10-25T22:38:08.395Z,11.90
2022-10-25T22:40:35.105Z,11.90
2022-10-25T22:43:03.382Z,11.90
2022-10-25T22:45:30.061Z,11.90
2022-10-25T22:47:56.757Z,11.90
2022-10-25T22:50:23.449Z,11.90
2022-10-25T22:52:50.180Z,12.00
2022-10-25T22:55:16.866Z,12.00
2022-10-25T22:57:43.514Z,12.00
2022-10-25T23:00:10.904Z,12.00
2022-10-25T23:02:37.551Z,11.90
2022-10-25T23:05:04.470Z,11.80
2022-10-25T23:07:31.131Z,11.70
2022-10-25T23:09:57.875Z,11.70
2022-10-25T23:12:24.601Z,11.80
2022-10-25T23:14:51.302Z,12.00
2022-10-25T23:17:17.971Z,12.00
2022-10-25T23:19:44.678Z,12.10
2022-10-25T23:22:11.569Z,11.90
2022-10-25T23:24:38.280Z,12.00
2022-10-25T23:27:05.044Z,12.10
2022-10-25T23:29:31.789Z,12.10
2022-10-25T23:31:58.427Z,12.20
2022-10-25T23:34:25.233Z,12.20
2022-10-25T23:36:52.109Z,12.20
2022-10-25T23:39:18.813Z,12.30
2022-10-25T23:41:45.445Z,12.30
2022-10-25T23:44:12.119Z,12.40
2022-10-25T23:46:38.826Z,12.30
2022-10-25T23:49:05.548Z,12.40
2022-10-25T23:51:32.236Z,12.30
2022-10-25T23:53:59.042Z,12.40
2022-10-25T23:56:26.182Z,12.40
2022-10-25T23:58:53.662Z,12.40
